Time;durP1;ratioP1;P1;durP2;ratioP2;P2;SDS_P1;SDS_P2;PMS_P1;PMS_P2;Temp;Humidity;BMP_temperature;BMP_pressure;BME280_temperature;BME280_humidity;BME280_pressure;Samples;Min_cycle;Max_cycle;Signal;HPM_P1;HPM_P2
2022/09/24 00:01:06;;;;;;;115.35;75.20;;;13.10;99.90;;;;;;5092006;28;20081;-71
2022/09/24 00:03:31;;;;;;;101.05;71.07;;;13.20;99.90;;;;;;5091508;28;20036;-71
2022/09/24 00:06:01;;;;;;;104.07;73.95;;;13.10;99.90;;;;;;5093429;28;20108;-70
2022/09/24 00:08:27;;;;;;;112.97;73.35;;;13.10;99.90;;;;;;5091059;28;20044;-71
2022/09/24 00:10:55;;;;;;;108.57;71.32;;;13.20;99.90;;;;;;5098495;28;20431;-71
2022/09/24 00:13:21;;;;;;;126.15;78.55;;;13.10;99.90;;;;;;5094104;28;20468;-70
2022/09/24 00:15:48;;;;;;;112.45;74.90;;;13.20;99.90;;;;;;5091781;28;20048;-70
2022/09/24 00:18:16;;;;;;;110.10;74.75;;;13.10;99.90;;;;;;5096544;28;20513;-70
2022/09/24 00:20:43;;;;;;;119.38;78.50;;;13.20;99.90;;;;;;5098974;28;20083;-70
2022/09/24 00:23:11;;;;;;;104.75;75.53;;;13.20;99.90;;;;;;5093935;28;20501;-70
2022/09/24 00:28:31;;;;;;;116.20;77.75;;;13.20;99.90;;;;;;5100439;28;20075;-70
2022/09/24 00:30:58;;;;;;;108.55;73.47;;;13.10;99.90;;;;;;5094329;28;20036;-70
2022/09/24 00:33:27;;;;;;;109.97;79.95;;;13.20;99.90;;;;;;5090544;28;20504;-71
2022/09/24 00:35:59;;;;;;;112.93;75.95;;;13.10;99.90;;;;;;5095123;28;20400;-70
2022/09/24 00:38:25;;;;;;;122.72;81.75;;;13.10;99.90;;;;;;5093541;28;20063;-70
2022/09/24 00:40:51;;;;;;;121.50;80.47;;;13.10;99.90;;;;;;5098620;28;20048;-70
2022/09/24 00:43:33;;;;;;;113.50;80.03;;;13.10;99.90;;;;;;5095328;28;20413;-70
2022/09/24 00:46:26;;;;;;;106.47;77.43;;;13.10;99.90;;;;;;5092991;28;20097;-70
2022/09/24 00:49:11;;;;;;;119.82;81.50;;;13.20;99.90;;;;;;5092671;28;20051;-70
2022/09/24 00:51:38;;;;;;;120.40;79.20;;;13.10;99.90;;;;;;5098728;28;20047;-70
2022/09/24 00:54:08;;;;;;;118.68;80.32;;;13.10;99.90;;;;;;5097325;28;20035;-70
2022/09/24 00:56:38;;;;;;;135.38;86.75;;;13.10;99.90;;;;;;5094682;28;20055;-70
2022/09/24 00:59:07;;;;;;;133.20;87.10;;;13.20;99.90;;;;;;5092798;28;20132;-70
2022/09/24 01:01:32;;;;;;;117.35;81.28;;;13.10;99.90;;;;;;5094520;28;20048;-70
2022/09/24 01:04:00;;;;;;;122.82;81.85;;;13.10;99.90;;;;;;5093805;28;20045;-70
2022/09/24 01:06:26;;;;;;;131.63;86.20;;;13.10;99.90;;;;;;5091837;28;20047;-70
2022/09/24 01:08:54;;;;;;;122.80;81.20;;;13.10;99.90;;;;;;5088285;28;20039;-70
2022/09/24 01:11:33;;;;;;;;;;;13.20;99.90;;;;;;5093445;28;20043;-70
2022/09/24 01:14:50;;;;;;;141.52;87.40;;;13.20;99.90;;;;;;5094778;28;19963;-70
2022/09/24 01:17:24;;;;;;;130.43;85.65;;;13.10;99.90;;;;;;5066422;28;20524;-71
2022/09/24 01:20:28;;;;;;;124.00;85.55;;;13.20;99.90;;;;;;5091231;28;20101;-70
2022/09/24 01:23:31;;;;;;;127.55;83.60;;;13.10;99.90;;;;;;5090448;28;20126;-70
2022/09/24 01:26:20;;;;;;;138.20;88.55;;;13.20;99.90;;;;;;5096276;28;20047;-71
2022/09/24 01:28:51;;;;;;;129.63;82.50;;;13.10;99.90;;;;;;5096386;28;20040;-70
2022/09/24 01:31:34;;;;;;;121.22;82.25;;;13.20;99.90;;;;;;5092225;28;20142;-70
2022/09/24 01:34:07;;;;;;;128.02;87.55;;;13.10;99.90;;;;;;5075106;28;20540;-70
2022/09/24 01:36:35;;;;;;;129.95;82.07;;;13.20;99.90;;;;;;5092845;28;20076;-70
2022/09/24 01:39:03;;;;;;;146.40;89.43;;;13.10;99.90;;;;;;5095778;28;20047;-70
2022/09/24 01:41:29;;;;;;;126.50;83.07;;;13.10;99.90;;;;;;5091109;28;20061;-70
2022/09/24 01:43:59;;;;;;;136.18;83.03;;;13.10;99.90;;;;;;5110021;28;20070;-70
2022/09/24 01:46:25;;;;;;;130.70;84.78;;;13.20;99.90;;;;;;5091219;28;20043;-70
2022/09/24 01:48:51;;;;;;;141.63;90.80;;;13.20;99.90;;;;;;5092268;28;20044;-70
2022/09/24 01:51:36;;;;;;;142.10;89.18;;;13.30;99.90;;;;;;5096110;28;20916;-71
2022/09/24 01:54:08;;;;;;;133.52;88.60;;;13.20;99.90;;;;;;5089974;28;20101;-71
2022/09/24 01:56:38;;;;;;;146.75;91.85;;;13.20;99.90;;;;;;5095635;28;20784;-70
2022/09/24 01:59:11;;;;;;;143.23;91.43;;;13.20;99.90;;;;;;5102460;28;20051;-70
2022/09/24 02:01:49;;;;;;;138.02;87.25;;;13.20;99.90;;;;;;5089579;28;20123;-70
2022/09/24 02:04:18;;;;;;;130.95;86.78;;;13.10;99.90;;;;;;5092859;28;20048;-70
2022/09/24 02:06:54;;;;;;;128.98;84.50;;;13.10;99.90;;;;;;5105244;28;20257;-70
2022/09/24 02:09:48;;;;;;;139.15;90.35;;;13.20;99.90;;;;;;5102144;28;20054;-70
2022/09/24 02:12:25;;;;;;;130.70;85.15;;;13.10;99.90;;;;;;5083073;28;20051;-70
2022/09/24 02:14:57;;;;;;;140.23;87.25;;;13.10;99.90;;;;;;5091413;28;20464;-70
2022/09/24 02:17:26;;;;;;;128.32;85.40;;;13.20;99.90;;;;;;5100239;28;20075;-70
2022/09/24 02:19:55;;;;;;;140.73;86.78;;;13.10;99.90;;;;;;5101752;28;20109;-70
2022/09/24 02:22:22;;;;;;;134.25;86.95;;;13.20;99.90;;;;;;5093850;28;20858;-70
2022/09/24 02:24:52;;;;;;;148.25;88.40;;;13.10;99.90;;;;;;5099878;28;20047;-70
2022/09/24 02:27:18;;;;;;;139.50;85.30;;;13.10;99.90;;;;;;5105754;28;20056;-70
2022/09/24 02:29:45;;;;;;;132.32;84.70;;;13.10;99.90;;;;;;5093720;28;20044;-70
2022/09/24 02:32:14;;;;;;;136.07;82.10;;;13.10;99.90;;;;;;5090706;28;20047;-70
2022/09/24 02:34:48;;;;;;;140.88;86.50;;;13.20;99.90;;;;;;5092001;28;20499;-70
2022/09/24 02:37:15;;;;;;;129.60;85.57;;;13.20;99.90;;;;;;5104953;28;20080;-70
2022/09/24 02:39:41;;;;;;;138.95;84.88;;;13.20;99.90;;;;;;5082079;28;20101;-70
2022/09/24 02:42:10;;;;;;;128.18;83.78;;;13.10;99.90;;;;;;5096867;28;20039;-70
2022/09/24 02:44:35;;;;;;;;;;;13.10;99.90;;;;;;5107247;28;20046;-70
2022/09/24 02:47:02;;;;;;;146.70;87.30;;;13.10;99.90;;;;;;5095087;28;19920;-70
2022/09/24 02:49:28;;;;;;;126.65;82.70;;;13.10;99.90;;;;;;5101783;28;20043;-70
2022/09/24 02:51:54;;;;;;;128.68;81.80;;;13.10;99.90;;;;;;5107468;28;20105;-70
2022/09/24 02:54:21;;;;;;;126.95;76.97;;;13.10;99.90;;;;;;5095901;28;20074;-70
2022/09/24 02:56:47;;;;;;;113.00;77.97;;;13.10;99.90;;;;;;5100091;28;20043;-70
2022/09/24 02:59:13;;;;;;;135.73;85.28;;;13.10;99.90;;;;;;5092983;28;20089;-70
2022/09/24 03:01:39;;;;;;;141.82;89.28;;;13.10;99.90;;;;;;5098880;28;20043;-70
2022/09/24 03:04:05;;;;;;;130.93;83.38;;;13.10;99.90;;;;;;5085052;28;20051;-70
2022/09/24 03:06:31;;;;;;;146.30;86.20;;;13.10;99.90;;;;;;5108112;28;20051;-70
2022/09/24 03:08:57;;;;;;;124.82;82.03;;;13.10;99.90;;;;;;5106510;28;20056;-70
2022/09/24 03:11:22;;;;;;;132.63;81.80;;;13.10;99.90;;;;;;5093311;28;20066;-70
2022/09/24 03:13:49;;;;;;;129.38;81.95;;;13.10;99.90;;;;;;5098391;28;20065;-70
2022/09/24 03:16:17;;;;;;;126.13;79.78;;;13.10;99.90;;;;;;5094939;28;20122;-70
2022/09/24 03:18:42;;;;;;;135.30;82.38;;;13.10;99.90;;;;;;5095446;28;20060;-70
2022/09/24 03:21:11;;;;;;;134.65;82.20;;;13.20;99.90;;;;;;5096993;28;20112;-70
2022/09/24 03:23:37;;;;;;;133.95;82.78;;;13.10;99.90;;;;;;5101073;28;20051;-70
2022/09/24 03:26:03;;;;;;;136.10;82.43;;;13.10;99.90;;;;;;5098616;28;20048;-69
2022/09/24 03:28:29;;;;;;;133.10;81.85;;;13.10;99.90;;;;;;5098224;28;20046;-70
2022/09/24 03:31:01;;;;;;;127.43;77.10;;;13.10;99.90;;;;;;5092272;28;20052;-70
2022/09/24 03:33:27;;;;;;;137.00;83.03;;;13.10;99.90;;;;;;5095357;27;20552;-70
2022/09/24 03:36:01;;;;;;;140.25;86.13;;;13.00;99.90;;;;;;5089717;28;20135;-70
2022/09/24 03:38:28;;;;;;;148.43;82.95;;;13.10;99.90;;;;;;5099852;28;20031;-70
2022/09/24 03:40:54;;;;;;;131.40;82.03;;;13.00;99.90;;;;;;5100177;28;20051;-70
2022/09/24 03:43:21;;;;;;;136.10;85.95;;;13.00;99.90;;;;;;5106623;27;20051;-70
2022/09/24 03:45:48;;;;;;;128.85;81.07;;;13.00;99.90;;;;;;5109907;28;20039;-69
2022/09/24 03:48:14;;;;;;;134.60;81.13;;;13.00;99.90;;;;;;5096290;28;20047;-70
2022/09/24 03:50:40;;;;;;;126.22;81.68;;;13.00;99.90;;;;;;5100815;28;20052;-70
2022/09/24 03:53:06;;;;;;;130.52;81.18;;;13.50;99.90;;;;;;5100187;28;20043;-70
2022/09/24 03:55:33;;;;;;;126.90;80.47;;;13.10;99.90;;;;;;5098472;28;20561;-70
2022/09/24 03:57:59;;;;;;;123.55;77.10;;;13.00;99.90;;;;;;5103571;28;20126;-71
2022/09/24 04:00:24;;;;;;;119.85;74.28;;;12.90;99.90;;;;;;5105721;28;20108;-70
2022/09/24 04:02:50;;;;;;;123.45;77.68;;;13.00;99.90;;;;;;5099423;28;20485;-70
2022/09/24 04:05:16;;;;;;;129.18;77.90;;;12.90;99.90;;;;;;5094526;28;20092;-70
2022/09/24 04:07:43;;;;;;;122.13;74.72;;;13.00;99.90;;;;;;5103492;28;20077;-71
2022/09/24 04:10:09;;;;;;;136.75;79.53;;;13.00;99.90;;;;;;5102288;28;20051;-70
2022/09/24 04:12:35;;;;;;;126.95;76.88;;;12.90;99.90;;;;;;5097626;28;20047;-70
2022/09/24 04:15:01;;;;;;;122.85;75.18;;;12.90;99.90;;;;;;5092320;28;20050;-70
2022/09/24 04:17:32;;;;;;;129.13;79.90;;;12.90;99.90;;;;;;5105614;28;20386;-70
2022/09/24 04:19:58;;;;;;;118.40;76.88;;;12.90;99.90;;;;;;5098780;28;20060;-70
2022/09/24 04:22:25;;;;;;;135.00;82.68;;;13.00;99.90;;;;;;5096430;28;20047;-70
2022/09/24 04:24:51;;;;;;;124.32;76.72;;;12.90;99.90;;;;;;5095693;28;20079;-70
2022/09/24 04:27:23;;;;;;;137.50;84.78;;;12.90;99.90;;;;;;5095633;28;20089;-71
2022/09/24 04:29:48;;;;;;;140.95;83.78;;;12.90;99.90;;;;;;5107749;28;20054;-70
2022/09/24 04:32:14;;;;;;;128.20;78.72;;;12.90;99.90;;;;;;5096378;28;20047;-70
2022/09/24 04:34:40;;;;;;;132.35;82.70;;;12.90;99.90;;;;;;5098462;28;20047;-70
2022/09/24 04:37:05;;;;;;;134.68;80.25;;;12.90;99.90;;;;;;5105591;28;20555;-70
2022/09/24 04:39:31;;;;;;;129.23;78.63;;;12.90;99.90;;;;;;5108346;28;20151;-70
2022/09/24 04:41:57;;;;;;;127.63;79.55;;;12.90;99.90;;;;;;5100007;28;20044;-70
2022/09/24 04:44:22;;;;;;;133.38;80.30;;;12.90;99.90;;;;;;5102652;28;20042;-70
2022/09/24 04:46:49;;;;;;;127.22;77.28;;;12.90;99.90;;;;;;5096592;28;20093;-70
2022/09/24 04:49:14;;;;;;;125.68;80.20;;;12.90;99.90;;;;;;5100102;28;20143;-69
2022/09/24 04:51:40;;;;;;;131.77;81.10;;;12.90;99.90;;;;;;5103973;28;20556;-69
2022/09/24 04:54:07;;;;;;;146.32;83.70;;;12.90;99.90;;;;;;5105844;28;20054;-70
2022/09/24 04:56:32;;;;;;;143.05;84.50;;;12.90;99.90;;;;;;5105455;28;20049;-70
2022/09/24 04:58:58;;;;;;;136.30;81.18;;;13.00;99.90;;;;;;5091331;28;20695;-70
2022/09/24 05:01:24;;;;;;;138.95;83.50;;;12.90;99.90;;;;;;5106285;27;20050;-69
2022/09/24 05:03:50;;;;;;;148.10;83.13;;;12.90;99.90;;;;;;5103959;28;20043;-70
2022/09/24 05:06:15;;;;;;;128.55;79.32;;;13.00;99.90;;;;;;5094225;28;20059;-69
2022/09/24 05:08:41;;;;;;;135.88;78.63;;;12.90;99.90;;;;;;5098727;28;20408;-70
2022/09/24 05:11:09;;;;;;;145.07;86.53;;;12.90;99.90;;;;;;5106836;28;20284;-69
2022/09/24 05:13:34;;;;;;;144.27;85.63;;;12.90;99.90;;;;;;5105789;28;20031;-70
2022/09/24 05:16:02;;;;;;;140.13;84.15;;;12.90;99.90;;;;;;5106462;28;20038;-70
2022/09/24 05:18:28;;;;;;;137.13;81.53;;;13.00;99.90;;;;;;5097833;28;20367;-69
2022/09/24 05:20:55;;;;;;;144.73;87.80;;;13.00;99.90;;;;;;5101661;28;20047;-69
2022/09/24 05:23:20;;;;;;;141.35;79.18;;;13.00;99.90;;;;;;5097998;28;20060;-69
2022/09/24 05:28:34;;;;;;;135.85;81.63;;;13.00;99.90;;;;;;5092992;28;20056;-70
2022/09/24 05:31:01;;;;;;;145.82;85.43;;;13.00;99.90;;;;;;5097227;28;20058;-70
2022/09/24 05:33:27;;;;;;;138.38;83.18;;;13.00;99.90;;;;;;5100485;28;20051;-69
2022/09/24 05:35:56;;;;;;;141.18;85.97;;;12.90;99.90;;;;;;5096430;28;20165;-69
2022/09/24 05:38:22;;;;;;;147.77;85.03;;;13.00;99.90;;;;;;5094738;28;20054;-69
2022/09/24 05:40:49;;;;;;;140.25;85.60;;;13.00;99.90;;;;;;5104520;28;20112;-70
2022/09/24 05:43:16;;;;;;;154.20;89.05;;;13.00;99.90;;;;;;5096827;28;20374;-70
2022/09/24 05:45:49;;;;;;;139.88;84.07;;;13.00;99.90;;;;;;5097363;28;20043;-70
2022/09/24 05:48:15;;;;;;;136.93;83.90;;;13.00;99.90;;;;;;5101039;28;20043;-69
2022/09/24 05:50:41;;;;;;;149.30;86.03;;;13.00;99.90;;;;;;5105662;28;20096;-69
2022/09/24 05:53:08;;;;;;;142.35;86.63;;;13.10;99.90;;;;;;5102096;28;20127;-70
2022/09/24 05:55:34;;;;;;;144.55;84.65;;;13.10;99.90;;;;;;5101011;28;20453;-70
2022/09/24 05:58:05;;;;;;;139.48;83.65;;;13.10;99.90;;;;;;5104253;28;20592;-70
2022/09/24 06:00:31;;;;;;;133.70;83.70;;;13.10;99.90;;;;;;5108438;28;20035;-70
2022/09/24 06:03:03;;;;;;;137.00;81.70;;;13.00;99.90;;;;;;5101690;28;20047;-70
2022/09/24 06:05:28;;;;;;;135.35;83.82;;;13.00;99.90;;;;;;5107040;28;20726;-70
2022/09/24 06:07:55;;;;;;;140.82;84.57;;;13.10;99.90;;;;;;5103581;28;20035;-70
2022/09/24 06:10:20;;;;;;;147.57;85.18;;;13.10;99.90;;;;;;5088857;28;20054;-70
2022/09/24 06:12:46;;;;;;;147.32;83.95;;;13.10;99.90;;;;;;5097528;28;20031;-70
2022/09/24 06:15:13;;;;;;;157.63;87.75;;;13.10;99.90;;;;;;5111589;28;20135;-70
2022/09/24 06:17:38;;;;;;;142.10;86.47;;;13.10;99.90;;;;;;5104219;28;20089;-69
2022/09/24 06:20:04;;;;;;;127.97;81.13;;;13.20;99.90;;;;;;5108886;28;20454;-69
2022/09/24 06:22:30;;;;;;;134.85;82.90;;;13.20;99.90;;;;;;5102992;28;20476;-70
2022/09/24 06:24:55;;;;;;;143.35;84.88;;;13.10;99.90;;;;;;5102073;28;20040;-69
2022/09/24 06:27:21;;;;;;;141.30;84.03;;;13.10;99.90;;;;;;5101422;28;20778;-69
2022/09/24 06:29:47;;;;;;;173.13;89.90;;;13.10;99.90;;;;;;5111550;28;20489;-69
2022/09/24 06:32:12;;;;;;;153.80;87.55;;;13.30;99.90;;;;;;5108694;28;20131;-69
2022/09/24 06:34:38;;;;;;;145.27;84.47;;;13.10;99.90;;;;;;5094272;28;20134;-69
2022/09/24 06:37:03;;;;;;;142.35;84.00;;;13.10;99.90;;;;;;5091408;28;20043;-68
2022/09/24 06:39:29;;;;;;;153.05;87.70;;;13.10;99.90;;;;;;5100753;28;20381;-68
2022/09/24 06:41:55;;;;;;;158.68;87.85;;;13.20;99.90;;;;;;5094155;28;20043;-68
2022/09/24 06:44:20;;;;;;;151.13;87.35;;;13.20;99.90;;;;;;5099712;28;20031;-68
2022/09/24 06:46:47;;;;;;;141.93;87.32;;;13.20;99.90;;;;;;5097849;28;20095;-69
2022/09/24 06:49:12;;;;;;;132.65;81.22;;;13.30;99.90;;;;;;5101845;28;20110;-69
2022/09/24 06:51:38;;;;;;;125.95;78.75;;;13.20;99.90;;;;;;5108928;28;20039;-69
2022/09/24 06:54:04;;;;;;;136.77;81.57;;;13.20;99.90;;;;;;5108211;28;20377;-68
2022/09/24 06:56:30;;;;;;;125.15;76.80;;;13.20;99.90;;;;;;5107439;28;20093;-69
2022/09/24 06:58:56;;;;;;;128.07;75.70;;;13.30;99.90;;;;;;5094062;28;20035;-69
2022/09/24 07:01:22;;;;;;;137.50;75.43;;;13.20;99.90;;;;;;5097421;28;20044;-69
2022/09/24 07:03:47;;;;;;;120.13;71.78;;;13.30;99.90;;;;;;5097877;28;20496;-69
2022/09/24 07:06:13;;;;;;;118.85;75.72;;;13.20;99.90;;;;;;5096274;28;20055;-69
2022/09/24 07:08:39;;;;;;;114.28;69.90;;;13.30;99.90;;;;;;5096422;28;20465;-69
2022/09/24 07:11:04;;;;;;;115.30;70.35;;;13.30;99.90;;;;;;5095066;28;20051;-69
2022/09/24 07:13:30;;;;;;;98.53;63.95;;;13.30;99.90;;;;;;5096439;28;20089;-69
2022/09/24 07:15:56;;;;;;;106.68;70.70;;;13.30;99.90;;;;;;5097719;28;20089;-69
2022/09/24 07:18:21;;;;;;;116.47;66.03;;;13.40;99.90;;;;;;5097769;28;20060;-69
2022/09/24 07:20:54;;;;;;;107.28;68.05;;;13.40;99.90;;;;;;5100197;28;20471;-69
2022/09/24 07:23:20;;;;;;;114.05;69.85;;;13.50;99.90;;;;;;5098977;28;20047;-69
2022/09/24 07:25:47;;;;;;;103.13;64.80;;;13.50;99.90;;;;;;5097388;28;20039;-69
2022/09/24 07:28:14;;;;;;;107.50;65.80;;;13.50;99.90;;;;;;5095622;28;20043;-68
2022/09/24 07:30:41;;;;;;;104.25;64.68;;;13.60;99.90;;;;;;5084194;28;20156;-69
2022/09/24 07:33:07;;;;;;;112.78;64.25;;;13.50;99.90;;;;;;5100140;28;20123;-68
2022/09/24 07:35:33;;;;;;;117.47;64.45;;;13.60;99.90;;;;;;5092757;28;20486;-69
2022/09/24 07:38:06;;;;;;;113.35;65.47;;;13.60;99.90;;;;;;5098243;28;20420;-69
2022/09/24 07:40:31;;;;;;;91.20;57.97;;;13.60;99.90;;;;;;5095391;28;20040;-68
2022/09/24 07:43:00;;;;;;;96.82;62.80;;;13.60;99.90;;;;;;5095384;28;20436;-68
2022/09/24 07:45:28;;;;;;;95.10;60.65;;;13.70;99.90;;;;;;5093475;28;20085;-68
2022/09/24 07:48:03;;;;;;;90.53;59.22;;;13.70;99.90;;;;;;5095308;28;20043;-69
2022/09/24 07:50:30;;;;;;;93.63;55.38;;;13.70;99.90;;;;;;5097853;28;20105;-69
2022/09/24 07:52:56;;;;;;;89.20;55.42;;;14.10;99.90;;;;;;5091220;28;20039;-68
2022/09/24 07:55:22;;;;;;;81.93;53.17;;;13.70;99.90;;;;;;5098196;28;20047;-68
2022/09/24 07:57:53;;;;;;;85.80;55.60;;;13.80;99.90;;;;;;5092389;28;20089;-68
2022/09/24 08:00:20;;;;;;;75.35;49.30;;;13.90;99.90;;;;;;5096593;28;20044;-68
2022/09/24 08:02:47;;;;;;;75.07;46.87;;;13.90;99.90;;;;;;5097552;28;20052;-69
2022/09/24 08:05:16;;;;;;;82.90;48.05;;;13.90;99.90;;;;;;5097310;28;20388;-69
2022/09/24 08:07:49;;;;;;;77.88;46.22;;;13.90;99.90;;;;;;5096615;28;20483;-68
2022/09/24 08:10:15;;;;;;;69.72;43.30;;;14.00;99.90;;;;;;5099250;28;20062;-69
2022/09/24 08:12:41;;;;;;;67.18;41.13;;;14.00;99.90;;;;;;5093031;28;20048;-68
2022/09/24 08:15:07;;;;;;;63.35;39.85;;;14.00;99.90;;;;;;5091485;28;20048;-68
2022/09/24 08:17:33;;;;;;;52.47;33.33;;;14.10;99.90;;;;;;5099479;28;20047;-68
2022/09/24 08:19:58;;;;;;;47.33;26.67;;;14.10;99.90;;;;;;5097872;28;20035;-68
2022/09/24 08:22:25;;;;;;;47.03;18.42;;;14.20;99.90;;;;;;5098481;28;20922;-68
2022/09/24 08:24:51;;;;;;;39.85;17.77;;;14.10;99.90;;;;;;5095638;28;20122;-68
2022/09/24 08:27:19;;;;;;;30.88;16.42;;;14.20;99.90;;;;;;5094751;28;20574;-68
2022/09/24 08:29:46;;;;;;;32.15;11.52;;;14.30;99.90;;;;;;5097460;28;20040;-68
2022/09/24 08:32:12;;;;;;;28.90;12.43;;;14.20;99.90;;;;;;5097994;28;20134;-68
2022/09/24 08:34:39;;;;;;;22.63;9.65;;;14.30;99.90;;;;;;5095408;28;20040;-68
2022/09/24 08:37:08;;;;;;;11.47;6.13;;;14.30;99.90;;;;;;5097802;28;20039;-69
2022/09/24 08:39:34;;;;;;;19.70;7.97;;;14.30;99.90;;;;;;5093427;28;20047;-69
2022/09/24 08:42:05;;;;;;;12.00;7.25;;;14.40;99.90;;;;;;5089027;28;20032;-68
2022/09/24 08:47:53;;;;;;;13.45;7.70;;;14.40;99.90;;;;;;5093931;28;20526;-68
2022/09/24 08:50:32;;;;;;;27.98;7.53;;;14.40;99.90;;;;;;5095181;28;20442;-68
2022/09/24 08:53:23;;;;;;;19.17;7.85;;;14.40;99.90;;;;;;5093147;28;20055;-68
2022/09/24 08:55:52;;;;;;;19.38;8.27;;;14.40;99.90;;;;;;5098036;28;20039;-69
2022/09/24 08:58:39;;;;;;;35.67;8.00;;;14.40;99.90;;;;;;5095102;28;20048;-68
2022/09/24 09:01:11;;;;;;;24.90;6.00;;;14.50;99.90;;;;;;5096287;28;20051;-69
2022/09/24 09:03:43;;;;;;;22.92;7.60;;;14.50;99.90;;;;;;5094792;28;20119;-68
2022/09/24 09:06:33;;;;;;;20.00;8.68;;;14.60;99.90;;;;;;5093861;28;20043;-68
2022/09/24 09:09:11;;;;;;;17.95;8.73;;;14.70;99.90;;;;;;5095005;28;20074;-68
2022/09/24 09:11:39;;;;;;;17.88;7.70;;;14.70;99.90;;;;;;5086618;28;20079;-67
2022/09/24 09:14:17;;;;;;;24.47;8.07;;;14.80;99.90;;;;;;5091697;28;20159;-69
2022/09/24 09:17:05;;;;;;;27.92;7.43;;;14.80;99.90;;;;;;5094740;28;20040;-68
2022/09/24 09:19:35;;;;;;;16.90;5.53;;;14.90;99.90;;;;;;5094017;28;20506;-69
2022/09/24 09:22:12;;;;;;;31.98;8.05;;;15.10;99.90;;;;;;5089621;28;20051;-69
2022/09/24 09:24:49;;;;;;;25.10;8.60;;;15.00;99.90;;;;;;5099584;28;20149;-69
2022/09/24 09:27:17;;;;;;;26.67;6.53;;;15.20;99.90;;;;;;5095511;28;20047;-69
2022/09/24 09:29:50;;;;;;;20.35;6.45;;;15.30;99.90;;;;;;5092855;28;20438;-69
2022/09/24 09:32:44;;;;;;;13.27;4.38;;;15.30;99.90;;;;;;5092884;28;20086;-69
2022/09/24 09:35:51;;;;;;;26.95;5.60;;;15.50;99.90;;;;;;5092546;28;20578;-69
2022/09/24 09:38:37;;;;;;;23.02;6.38;;;15.60;99.90;;;;;;5091819;28;20114;-69
2022/09/24 09:41:26;;;;;;;23.35;7.13;;;15.60;99.90;;;;;;5098618;28;20047;-69
2022/09/24 09:44:23;;;;;;;35.10;8.75;;;15.70;99.90;;;;;;5092568;28;20446;-69
2022/09/24 09:47:02;;;;;;;32.75;5.82;;;15.80;99.90;;;;;;5086630;28;20059;-69
2022/09/24 09:49:34;;;;;;;26.85;5.63;;;15.80;99.90;;;;;;5092169;28;20048;-69
2022/09/24 09:52:03;;;;;;;22.08;4.95;;;15.80;99.90;;;;;;5071795;28;20138;-68
2022/09/24 09:54:40;;;;;;;18.55;5.63;;;15.80;99.90;;;;;;5092522;28;20048;-69
2022/09/24 09:57:16;;;;;;;18.48;6.15;;;15.80;99.90;;;;;;5096150;28;20048;-68
2022/09/24 09:59:48;;;;;;;22.48;5.50;;;15.70;99.90;;;;;;5097236;28;20088;-68
2022/09/24 10:02:26;;;;;;;16.75;5.45;;;15.70;99.90;;;;;;5090481;28;20503;-69
2022/09/24 10:04:54;;;;;;;13.10;6.82;;;15.70;99.90;;;;;;5094110;28;20043;-68
2022/09/24 10:07:21;;;;;;;12.50;5.65;;;15.70;99.90;;;;;;5097133;28;20051;-69
2022/09/24 10:09:58;;;;;;;9.38;5.65;;;15.60;99.90;;;;;;5094068;28;20067;-69
2022/09/24 10:12:25;;;;;;;13.55;5.50;;;15.70;99.90;;;;;;5095402;28;20130;-68
2022/09/24 10:15:03;;;;;;;14.23;4.75;;;15.60;99.90;;;;;;5096701;28;20052;-68
2022/09/24 10:17:37;;;;;;;15.43;5.97;;;15.50;99.90;;;;;;5093753;28;20051;-68
2022/09/24 10:20:26;;;;;;;14.30;5.28;;;15.50;99.90;;;;;;5092700;28;20200;-68
2022/09/24 10:23:19;;;;;;;15.32;5.05;;;15.50;99.90;;;;;;5098282;28;20039;-69
2022/09/24 10:25:52;;;;;;;10.05;5.03;;;15.40;99.90;;;;;;5094659;28;21614;-68
2022/09/24 10:31:12;;;;;;;12.20;6.03;;;15.40;99.90;;;;;;5095364;28;20051;-68
2022/09/24 10:33:40;;;;;;;13.70;5.82;;;15.40;99.90;;;;;;5093571;28;20040;-68
2022/09/24 10:36:24;;;;;;;22.33;4.93;;;15.30;99.90;;;;;;5096022;28;20039;-68
2022/09/24 10:39:10;;;;;;;19.45;6.45;;;15.30;99.90;;;;;;5095572;28;20047;-68
2022/09/24 10:41:36;;;;;;;8.73;7.85;;;15.30;99.90;;;;;;5094122;28;21928;-68
2022/09/24 10:44:12;;;;;;;14.98;6.57;;;15.20;99.90;;;;;;5095064;28;20036;-68
2022/09/24 10:47:04;;;;;;;12.73;6.05;;;15.20;99.90;;;;;;5095323;28;20176;-68
2022/09/24 10:50:03;;;;;;;21.33;7.28;;;15.20;99.90;;;;;;5095190;28;20804;-69
2022/09/24 10:52:43;;;;;;;11.18;4.72;;;15.20;99.90;;;;;;5099578;28;20043;-69
2022/09/24 10:55:28;;;;;;;10.45;5.82;;;15.20;99.90;;;;;;5099149;28;20055;-69
2022/09/24 10:58:31;;;;;;;13.68;5.07;;;15.20;99.90;;;;;;5096352;28;20373;-69
2022/09/24 11:01:14;;;;;;;16.08;4.95;;;15.20;99.90;;;;;;5098071;28;20058;-69
2022/09/24 11:03:53;;;;;;;24.58;6.03;;;15.10;99.90;;;;;;5097673;28;20064;-68
2022/09/24 11:06:24;;;;;;;15.32;5.40;;;15.10;99.90;;;;;;5098078;28;20040;-69
2022/09/24 11:09:08;;;;;;;16.42;5.72;;;15.10;99.90;;;;;;5099188;28;20439;-69
2022/09/24 11:11:46;;;;;;;10.05;4.90;;;15.10;99.90;;;;;;5096228;28;20059;-69
2022/09/24 11:14:19;;;;;;;11.35;4.85;;;15.20;99.90;;;;;;5099349;28;20040;-69
2022/09/24 11:17:01;;;;;;;25.98;4.45;;;15.20;99.90;;;;;;5100290;27;20047;-69
2022/09/24 11:20:05;;;;;;;20.58;4.82;;;15.10;99.90;;;;;;5101315;28;20143;-69
2022/09/24 11:22:53;;;;;;;18.27;5.32;;;15.20;99.90;;;;;;5100108;28;20139;-68
2022/09/24 11:25:42;;;;;;;16.58;4.55;;;15.10;99.90;;;;;;5102023;28;20104;-69
2022/09/24 11:28:25;;;;;;;10.05;4.10;;;15.10;99.90;;;;;;5100476;28;20078;-69
2022/09/24 11:31:11;;;;;;;8.13;4.57;;;15.10;99.90;;;;;;5100785;28;20040;-68
2022/09/24 11:34:04;;;;;;;12.23;3.65;;;15.10;99.90;;;;;;5100393;28;20051;-69
2022/09/24 11:36:36;;;;;;;11.80;3.97;;;15.10;99.90;;;;;;5099443;28;20896;-68
2022/09/24 11:39:22;;;;;;;6.72;2.90;;;15.10;99.90;;;;;;5101217;28;20067;-68
2022/09/24 11:42:19;;;;;;;13.63;4.28;;;15.10;99.90;;;;;;5099517;28;20053;-68
2022/09/24 11:44:45;;;;;;;16.85;5.18;;;15.00;99.90;;;;;;5082871;28;20095;-68
2022/09/24 11:47:25;;;;;;;15.25;4.45;;;15.10;99.90;;;;;;5099289;28;20055;-68
2022/09/24 11:50:22;;;;;;;16.48;4.63;;;15.10;99.90;;;;;;5102834;28;20124;-68
2022/09/24 11:53:21;;;;;;;12.63;3.70;;;15.10;99.90;;;;;;5102075;28;20051;-68
2022/09/24 11:55:53;;;;;;;18.02;3.35;;;15.10;99.90;;;;;;5098486;28;20883;-68
2022/09/24 11:58:28;;;;;;;18.00;3.55;;;15.00;99.90;;;;;;5097899;28;21534;-68
2022/09/24 12:01:11;;;;;;;14.02;3.58;;;15.10;99.90;;;;;;5102512;28;20047;-68
2022/09/24 12:03:56;;;;;;;15.60;3.63;;;15.10;99.90;;;;;;5102174;28;20081;-68
2022/09/24 12:06:30;;;;;;;16.13;3.63;;;15.20;99.90;;;;;;5098108;28;20059;-68
2022/09/24 12:09:11;;;;;;;15.27;3.35;;;15.20;99.90;;;;;;5103461;28;20053;-68
2022/09/24 12:12:02;;;;;;;10.27;4.13;;;15.20;99.90;;;;;;5101157;28;20147;-68
2022/09/24 12:14:36;;;;;;;17.70;3.92;;;15.10;99.90;;;;;;5098849;28;20168;-68
2022/09/24 12:17:08;;;;;;;11.27;2.80;;;15.20;99.90;;;;;;5098280;28;20048;-68
2022/09/24 12:19:45;;;;;;;14.65;3.20;;;15.20;99.90;;;;;;5101036;28;20052;-68
2022/09/24 12:22:11;;;;;;;11.52;3.53;;;15.10;99.90;;;;;;5099423;28;20093;-68
2022/09/24 12:24:59;;;;;;;16.40;5.05;;;15.10;99.90;;;;;;5099379;28;20124;-68
2022/09/24 12:27:33;;;;;;;13.98;4.38;;;15.10;99.90;;;;;;5096004;28;20408;-68
2022/09/24 12:33:33;;;;;;;19.13;4.18;;;15.10;99.90;;;;;;5095887;28;20047;-68
2022/09/24 12:36:19;;;;;;;6.78;3.60;;;15.10;99.90;;;;;;5097360;28;20185;-68
2022/09/24 12:38:59;;;;;;;11.73;4.07;;;15.10;99.90;;;;;;5096782;28;20059;-68
2022/09/24 12:41:33;;;;;;;15.27;3.28;;;15.10;99.90;;;;;;5092063;28;20047;-68
2022/09/24 12:44:11;;;;;;;16.95;5.55;;;15.10;99.90;;;;;;5091364;28;20916;-68
2022/09/24 12:46:50;;;;;;;10.55;4.00;;;15.10;99.90;;;;;;5096053;28;20053;-68
2022/09/24 12:49:22;;;;;;;9.20;4.05;;;15.00;99.90;;;;;;5096734;28;20381;-68
2022/09/24 12:51:48;;;;;;;11.25;3.75;;;14.90;99.90;;;;;;5098368;28;20048;-68
2022/09/24 12:54:34;;;;;;;10.13;3.38;;;14.90;99.90;;;;;;5092027;28;20050;-69
2022/09/24 12:57:11;;;;;;;14.32;4.28;;;15.00;99.90;;;;;;5096032;28;20080;-68
2022/09/24 12:59:52;;;;;;;5.00;3.13;;;14.90;99.90;;;;;;5091031;28;20515;-68
2022/09/24 13:02:27;;;;;;;6.38;3.53;;;14.80;99.90;;;;;;5089151;28;20089;-68
2022/09/24 13:05:12;;;;;;;12.18;3.40;;;14.80;99.90;;;;;;5090793;28;20056;-68